sensor_id;sensor_type;location;lat;lon;timestamp;P1;durP1;ratioP1;P2;durP2;ratioP2
18931;SDS011;9598;50.954;3.112;2022-11-20T00:00:40;32.60;;;21.20;;
18931;SDS011;9598;50.954;3.112;2022-11-20T00:05:42;33.08;;;20.23;;
18931;SDS011;9598;50.954;3.112;2022-11-20T00:10:44;35.80;;;23.67;;
18931;SDS011;9598;50.954;3.112;2022-11-20T00:15:47;33.15;;;22.48;;
18931;SDS011;9598;50.954;3.112;2022-11-20T00:20:49;35.25;;;24.05;;
18931;SDS011;9598;50.954;3.112;2022-11-20T00:25:51;34.38;;;22.52;;
18931;SDS011;9598;50.954;3.112;2022-11-20T00:31:01;35.08;;;23.52;;
18931;SDS011;9598;50.954;3.112;2022-11-20T00:36:05;30.75;;;21.98;;
18931;SDS011;9598;50.954;3.112;2022-11-20T00:41:09;37.28;;;24.00;;
18931;SDS011;9598;50.954;3.112;2022-11-20T00:46:14;36.58;;;23.83;;
18931;SDS011;9598;50.954;3.112;2022-11-20T00:51:19;32.65;;;23.33;;
18931;SDS011;9598;50.954;3.112;2022-11-20T00:56:22;37.58;;;24.92;;
18931;SDS011;9598;50.954;3.112;2022-11-20T01:01:25;38.00;;;23.80;;
18931;SDS011;9598;50.954;3.112;2022-11-20T01:06:29;34.75;;;23.50;;
18931;SDS011;9598;50.954;3.112;2022-11-20T01:11:33;48.78;;;28.90;;
18931;SDS011;9598;50.954;3.112;2022-11-20T01:16:39;47.17;;;27.25;;
18931;SDS011;9598;50.954;3.112;2022-11-20T01:21:42;51.20;;;29.25;;
18931;SDS011;9598;50.954;3.112;2022-11-20T01:26:46;52.67;;;30.65;;
18931;SDS011;9598;50.954;3.112;2022-11-20T01:31:51;52.33;;;30.02;;
18931;SDS011;9598;50.954;3.112;2022-11-20T01:36:53;57.80;;;31.13;;
18931;SDS011;9598;50.954;3.112;2022-11-20T01:41:55;58.13;;;33.03;;
18931;SDS011;9598;50.954;3.112;2022-11-20T01:47:17;54.67;;;31.73;;
18931;SDS011;9598;50.954;3.112;2022-11-20T01:52:27;64.22;;;33.58;;
18931;SDS011;9598;50.954;3.112;2022-11-20T01:57:35;56.67;;;30.92;;
18931;SDS011;9598;50.954;3.112;2022-11-20T02:02:41;60.08;;;33.75;;
18931;SDS011;9598;50.954;3.112;2022-11-20T02:07:46;64.45;;;34.58;;
18931;SDS011;9598;50.954;3.112;2022-11-20T02:12:49;62.28;;;34.92;;
18931;SDS011;9598;50.954;3.112;2022-11-20T02:18:10;61.60;;;33.80;;
18931;SDS011;9598;50.954;3.112;2022-11-20T02:23:16;65.10;;;35.22;;
18931;SDS011;9598;50.954;3.112;2022-11-20T02:28:25;62.95;;;36.13;;
18931;SDS011;9598;50.954;3.112;2022-11-20T02:33:27;69.90;;;37.13;;
18931;SDS011;9598;50.954;3.112;2022-11-20T02:38:29;71.93;;;37.75;;
18931;SDS011;9598;50.954;3.112;2022-11-20T02:43:33;71.15;;;39.42;;
18931;SDS011;9598;50.954;3.112;2022-11-20T02:48:35;76.80;;;39.63;;
18931;SDS011;9598;50.954;3.112;2022-11-20T02:53:37;73.70;;;38.78;;
18931;SDS011;9598;50.954;3.112;2022-11-20T02:58:41;73.95;;;40.22;;
18931;SDS011;9598;50.954;3.112;2022-11-20T03:03:43;71.85;;;37.30;;
18931;SDS011;9598;50.954;3.112;2022-11-20T03:08:45;72.90;;;38.05;;
18931;SDS011;9598;50.954;3.112;2022-11-20T03:13:48;72.00;;;38.75;;
18931;SDS011;9598;50.954;3.112;2022-11-20T03:18:51;73.95;;;39.08;;
18931;SDS011;9598;50.954;3.112;2022-11-20T03:23:54;66.53;;;35.75;;
18931;SDS011;9598;50.954;3.112;2022-11-20T03:28:58;71.18;;;38.03;;
18931;SDS011;9598;50.954;3.112;2022-11-20T03:34:01;66.45;;;35.92;;
18931;SDS011;9598;50.954;3.112;2022-11-20T03:39:04;69.32;;;37.55;;
18931;SDS011;9598;50.954;3.112;2022-11-20T03:44:08;73.88;;;37.03;;
18931;SDS011;9598;50.954;3.112;2022-11-20T03:49:12;59.97;;;34.72;;
18931;SDS011;9598;50.954;3.112;2022-11-20T03:54:14;57.22;;;32.45;;
18931;SDS011;9598;50.954;3.112;2022-11-20T03:59:17;58.90;;;34.00;;
18931;SDS011;9598;50.954;3.112;2022-11-20T04:04:19;61.50;;;34.20;;
18931;SDS011;9598;50.954;3.112;2022-11-20T04:09:21;58.58;;;31.45;;
18931;SDS011;9598;50.954;3.112;2022-11-20T04:14:25;60.45;;;33.22;;
18931;SDS011;9598;50.954;3.112;2022-11-20T04:19:27;54.58;;;32.28;;
18931;SDS011;9598;50.954;3.112;2022-11-20T04:24:29;63.67;;;33.45;;
18931;SDS011;9598;50.954;3.112;2022-11-20T04:29:32;65.97;;;35.17;;
18931;SDS011;9598;50.954;3.112;2022-11-20T04:34:34;65.53;;;33.47;;
18931;SDS011;9598;50.954;3.112;2022-11-20T04:39:36;58.83;;;33.97;;
18931;SDS011;9598;50.954;3.112;2022-11-20T04:44:39;64.85;;;34.20;;
18931;SDS011;9598;50.954;3.112;2022-11-20T04:49:42;55.92;;;32.78;;
18931;SDS011;9598;50.954;3.112;2022-11-20T04:54:43;63.38;;;31.92;;
18931;SDS011;9598;50.954;3.112;2022-11-20T04:59:47;56.50;;;31.40;;
18931;SDS011;9598;50.954;3.112;2022-11-20T05:04:49;52.45;;;28.98;;
18931;SDS011;9598;50.954;3.112;2022-11-20T05:09:51;52.40;;;28.27;;
18931;SDS011;9598;50.954;3.112;2022-11-20T05:14:54;52.42;;;29.55;;
18931;SDS011;9598;50.954;3.112;2022-11-20T05:19:56;50.97;;;28.05;;
18931;SDS011;9598;50.954;3.112;2022-11-20T05:24:58;55.08;;;29.85;;
18931;SDS011;9598;50.954;3.112;2022-11-20T05:30:02;52.75;;;29.02;;
18931;SDS011;9598;50.954;3.112;2022-11-20T05:35:04;51.17;;;28.77;;
18931;SDS011;9598;50.954;3.112;2022-11-20T05:40:07;47.58;;;26.02;;
18931;SDS011;9598;50.954;3.112;2022-11-20T05:45:12;44.90;;;25.25;;
18931;SDS011;9598;50.954;3.112;2022-11-20T05:50:14;46.33;;;25.42;;
18931;SDS011;9598;50.954;3.112;2022-11-20T05:55:16;43.80;;;25.50;;
18931;SDS011;9598;50.954;3.112;2022-11-20T06:00:19;39.33;;;23.00;;
18931;SDS011;9598;50.954;3.112;2022-11-20T06:05:22;41.92;;;25.15;;
18931;SDS011;9598;50.954;3.112;2022-11-20T06:10:24;41.75;;;24.95;;
18931;SDS011;9598;50.954;3.112;2022-11-20T06:15:27;37.42;;;22.67;;
18931;SDS011;9598;50.954;3.112;2022-11-20T06:20:29;37.40;;;23.17;;
18931;SDS011;9598;50.954;3.112;2022-11-20T06:25:31;41.20;;;24.90;;
18931;SDS011;9598;50.954;3.112;2022-11-20T06:30:35;38.65;;;23.63;;
18931;SDS011;9598;50.954;3.112;2022-11-20T06:35:37;39.22;;;24.13;;
18931;SDS011;9598;50.954;3.112;2022-11-20T06:40:39;40.83;;;24.02;;
18931;SDS011;9598;50.954;3.112;2022-11-20T06:45:43;39.47;;;23.45;;
18931;SDS011;9598;50.954;3.112;2022-11-20T06:50:45;36.35;;;21.75;;
18931;SDS011;9598;50.954;3.112;2022-11-20T06:55:48;41.45;;;23.65;;
18931;SDS011;9598;50.954;3.112;2022-11-20T07:00:52;37.30;;;22.38;;
18931;SDS011;9598;50.954;3.112;2022-11-20T07:05:54;32.03;;;21.98;;
18931;SDS011;9598;50.954;3.112;2022-11-20T07:10:57;37.72;;;23.05;;
18931;SDS011;9598;50.954;3.112;2022-11-20T07:16:01;37.65;;;24.02;;
18931;SDS011;9598;50.954;3.112;2022-11-20T07:21:06;37.05;;;22.50;;
18931;SDS011;9598;50.954;3.112;2022-11-20T07:26:10;49.08;;;33.15;;
18931;SDS011;9598;50.954;3.112;2022-11-20T07:31:13;37.08;;;22.65;;
18931;SDS011;9598;50.954;3.112;2022-11-20T07:36:15;34.42;;;22.17;;
18931;SDS011;9598;50.954;3.112;2022-11-20T07:41:17;32.40;;;20.63;;
18931;SDS011;9598;50.954;3.112;2022-11-20T07:46:21;35.42;;;21.83;;
18931;SDS011;9598;50.954;3.112;2022-11-20T07:51:23;33.85;;;21.85;;
18931;SDS011;9598;50.954;3.112;2022-11-20T07:56:26;34.85;;;21.92;;
18931;SDS011;9598;50.954;3.112;2022-11-20T08:01:29;33.78;;;21.65;;
18931;SDS011;9598;50.954;3.112;2022-11-20T08:06:31;31.58;;;20.85;;
18931;SDS011;9598;50.954;3.112;2022-11-20T08:11:34;33.70;;;21.55;;
18931;SDS011;9598;50.954;3.112;2022-11-20T08:16:55;34.90;;;21.27;;
18931;SDS011;9598;50.954;3.112;2022-11-20T08:21:57;30.45;;;20.20;;
18931;SDS011;9598;50.954;3.112;2022-11-20T08:26:59;29.15;;;20.25;;
18931;SDS011;9598;50.954;3.112;2022-11-20T08:32:03;28.95;;;19.65;;
18931;SDS011;9598;50.954;3.112;2022-11-20T08:37:07;29.50;;;19.05;;
18931;SDS011;9598;50.954;3.112;2022-11-20T08:42:09;27.98;;;18.60;;
18931;SDS011;9598;50.954;3.112;2022-11-20T08:47:12;27.13;;;19.60;;
18931;SDS011;9598;50.954;3.112;2022-11-20T08:52:14;26.92;;;17.98;;
18931;SDS011;9598;50.954;3.112;2022-11-20T08:57:17;25.67;;;18.85;;
18931;SDS011;9598;50.954;3.112;2022-11-20T09:02:20;22.05;;;16.70;;
18931;SDS011;9598;50.954;3.112;2022-11-20T09:07:22;21.00;;;15.75;;
18931;SDS011;9598;50.954;3.112;2022-11-20T09:12:24;19.83;;;15.07;;
18931;SDS011;9598;50.954;3.112;2022-11-20T09:17:28;24.40;;;14.48;;
18931;SDS011;9598;50.954;3.112;2022-11-20T09:22:30;22.13;;;13.77;;
18931;SDS011;9598;50.954;3.112;2022-11-20T09:27:33;18.10;;;12.02;;
18931;SDS011;9598;50.954;3.112;2022-11-20T09:32:37;14.20;;;10.52;;
18931;SDS011;9598;50.954;3.112;2022-11-20T09:37:40;10.10;;;7.88;;
18931;SDS011;9598;50.954;3.112;2022-11-20T09:42:43;9.15;;;6.78;;
18931;SDS011;9598;50.954;3.112;2022-11-20T09:48:00;5.75;;;4.88;;
18931;SDS011;9598;50.954;3.112;2022-11-20T09:53:18;7.85;;;4.30;;
18931;SDS011;9598;50.954;3.112;2022-11-20T09:58:29;7.68;;;4.00;;
18931;SDS011;9598;50.954;3.112;2022-11-20T10:03:40;5.75;;;4.18;;
18931;SDS011;9598;50.954;3.112;2022-11-20T10:08:51;6.20;;;3.88;;
18931;SDS011;9598;50.954;3.112;2022-11-20T10:14:04;7.78;;;3.85;;
18931;SDS011;9598;50.954;3.112;2022-11-20T10:19:21;7.68;;;3.53;;
18931;SDS011;9598;50.954;3.112;2022-11-20T10:24:41;7.05;;;4.10;;
18931;SDS011;9598;50.954;3.112;2022-11-20T10:29:47;4.38;;;3.95;;
18931;SDS011;9598;50.954;3.112;2022-11-20T10:34:57;7.50;;;5.85;;
18931;SDS011;9598;50.954;3.112;2022-11-20T10:40:04;5.88;;;4.18;;
18931;SDS011;9598;50.954;3.112;2022-11-20T10:45:19;4.50;;;4.03;;
18931;SDS011;9598;50.954;3.112;2022-11-20T10:50:34;5.65;;;3.60;;
18931;SDS011;9598;50.954;3.112;2022-11-20T10:55:40;7.50;;;4.47;;
18931;SDS011;9598;50.954;3.112;2022-11-20T11:00:46;9.68;;;6.18;;
18931;SDS011;9598;50.954;3.112;2022-11-20T11:05:50;7.00;;;5.13;;
18931;SDS011;9598;50.954;3.112;2022-11-20T11:10:56;5.80;;;4.53;;
18931;SDS011;9598;50.954;3.112;2022-11-20T11:16:01;8.68;;;4.75;;
18931;SDS011;9598;50.954;3.112;2022-11-20T11:21:06;8.57;;;4.82;;
18931;SDS011;9598;50.954;3.112;2022-11-20T11:26:18;5.85;;;4.68;;
18931;SDS011;9598;50.954;3.112;2022-11-20T11:31:23;11.40;;;5.50;;
18931;SDS011;9598;50.954;3.112;2022-11-20T11:36:27;8.57;;;5.10;;
18931;SDS011;9598;50.954;3.112;2022-11-20T11:41:30;5.70;;;4.28;;
18931;SDS011;9598;50.954;3.112;2022-11-20T11:46:35;7.95;;;5.35;;
18931;SDS011;9598;50.954;3.112;2022-11-20T11:51:41;7.72;;;4.93;;
18931;SDS011;9598;50.954;3.112;2022-11-20T11:57:00;5.15;;;4.72;;
18931;SDS011;9598;50.954;3.112;2022-11-20T12:02:11;8.32;;;5.53;;
18931;SDS011;9598;50.954;3.112;2022-11-20T12:07:32;6.65;;;5.40;;
18931;SDS011;9598;50.954;3.112;2022-11-20T12:12:40;5.78;;;4.90;;
18931;SDS011;9598;50.954;3.112;2022-11-20T12:17:46;4.82;;;4.07;;
18931;SDS011;9598;50.954;3.112;2022-11-20T12:22:51;4.72;;;4.20;;
18931;SDS011;9598;50.954;3.112;2022-11-20T12:28:01;4.90;;;4.50;;
18931;SDS011;9598;50.954;3.112;2022-11-20T12:33:25;4.65;;;4.07;;
18931;SDS011;9598;50.954;3.112;2022-11-20T12:44:24;3.95;;;3.55;;
18931;SDS011;9598;50.954;3.112;2022-11-20T12:50:01;4.47;;;4.13;;
18931;SDS011;9598;50.954;3.112;2022-11-20T13:00:31;3.42;;;3.08;;
18931;SDS011;9598;50.954;3.112;2022-11-20T13:05:37;2.83;;;2.63;;
18931;SDS011;9598;50.954;3.112;2022-11-20T13:10:50;3.67;;;3.15;;
18931;SDS011;9598;50.954;3.112;2022-11-20T13:15:59;3.40;;;3.10;;
18931;SDS011;9598;50.954;3.112;2022-11-20T13:21:12;4.15;;;3.10;;
18931;SDS011;9598;50.954;3.112;2022-11-20T13:26:20;3.00;;;2.80;;
18931;SDS011;9598;50.954;3.112;2022-11-20T13:31:28;4.40;;;2.70;;
18931;SDS011;9598;50.954;3.112;2022-11-20T13:36:32;3.00;;;2.80;;
18931;SDS011;9598;50.954;3.112;2022-11-20T13:41:38;3.53;;;2.53;;
18931;SDS011;9598;50.954;3.112;2022-11-20T13:46:41;2.72;;;2.53;;
18931;SDS011;9598;50.954;3.112;2022-11-20T13:51:45;5.60;;;2.83;;
18931;SDS011;9598;50.954;3.112;2022-11-20T13:56:56;6.00;;;2.80;;
18931;SDS011;9598;50.954;3.112;2022-11-20T14:02:09;4.70;;;2.88;;
18931;SDS011;9598;50.954;3.112;2022-11-20T14:07:13;8.95;;;2.92;;
18931;SDS011;9598;50.954;3.112;2022-11-20T14:12:18;10.90;;;3.13;;
18931;SDS011;9598;50.954;3.112;2022-11-20T14:17:23;12.93;;;3.75;;
18931;SDS011;9598;50.954;3.112;2022-11-20T14:22:31;12.25;;;3.58;;
18931;SDS011;9598;50.954;3.112;2022-11-20T14:27:35;9.90;;;3.78;;
18931;SDS011;9598;50.954;3.112;2022-11-20T14:32:38;17.65;;;4.32;;
18931;SDS011;9598;50.954;3.112;2022-11-20T14:37:42;13.35;;;4.13;;
18931;SDS011;9598;50.954;3.112;2022-11-20T14:42:45;12.88;;;3.72;;
18931;SDS011;9598;50.954;3.112;2022-11-20T14:47:48;9.55;;;3.30;;
18931;SDS011;9598;50.954;3.112;2022-11-20T14:52:52;11.27;;;3.80;;
18931;SDS011;9598;50.954;3.112;2022-11-20T14:57:56;13.38;;;3.60;;
18931;SDS011;9598;50.954;3.112;2022-11-20T15:03:00;11.18;;;3.65;;
18931;SDS011;9598;50.954;3.112;2022-11-20T15:08:06;11.57;;;3.88;;
18931;SDS011;9598;50.954;3.112;2022-11-20T15:13:12;13.98;;;4.70;;
18931;SDS011;9598;50.954;3.112;2022-11-20T15:18:17;11.88;;;3.95;;
18931;SDS011;9598;50.954;3.112;2022-11-20T15:23:22;7.72;;;3.08;;
18931;SDS011;9598;50.954;3.112;2022-11-20T15:28:27;12.52;;;4.00;;
18931;SDS011;9598;50.954;3.112;2022-11-20T15:33:32;14.50;;;4.07;;
18931;SDS011;9598;50.954;3.112;2022-11-20T15:38:34;9.95;;;3.35;;
18931;SDS011;9598;50.954;3.112;2022-11-20T15:43:38;11.32;;;3.72;;
18931;SDS011;9598;50.954;3.112;2022-11-20T15:48:41;10.32;;;3.75;;
18931;SDS011;9598;50.954;3.112;2022-11-20T15:53:44;12.70;;;3.85;;
18931;SDS011;9598;50.954;3.112;2022-11-20T15:58:48;12.45;;;4.10;;
18931;SDS011;9598;50.954;3.112;2022-11-20T16:03:50;14.38;;;3.55;;
18931;SDS011;9598;50.954;3.112;2022-11-20T16:08:52;16.95;;;4.28;;
18931;SDS011;9598;50.954;3.112;2022-11-20T16:13:56;12.20;;;3.65;;
18931;SDS011;9598;50.954;3.112;2022-11-20T16:19:15;9.10;;;3.22;;
18931;SDS011;9598;50.954;3.112;2022-11-20T16:24:18;14.93;;;4.43;;
18931;SDS011;9598;50.954;3.112;2022-11-20T16:29:21;12.15;;;4.00;;
18931;SDS011;9598;50.954;3.112;2022-11-20T16:34:23;13.98;;;4.28;;
18931;SDS011;9598;50.954;3.112;2022-11-20T16:39:25;11.60;;;4.10;;
18931;SDS011;9598;50.954;3.112;2022-11-20T16:44:29;13.75;;;4.10;;
18931;SDS011;9598;50.954;3.112;2022-11-20T16:49:31;12.05;;;4.82;;
18931;SDS011;9598;50.954;3.112;2022-11-20T16:54:33;12.43;;;4.38;;
18931;SDS011;9598;50.954;3.112;2022-11-20T16:59:36;13.68;;;4.80;;
18931;SDS011;9598;50.954;3.112;2022-11-20T17:04:38;14.38;;;4.75;;
18931;SDS011;9598;50.954;3.112;2022-11-20T17:09:40;17.40;;;5.25;;
18931;SDS011;9598;50.954;3.112;2022-11-20T17:14:44;11.88;;;5.50;;
18931;SDS011;9598;50.954;3.112;2022-11-20T17:19:46;14.38;;;5.13;;
18931;SDS011;9598;50.954;3.112;2022-11-20T17:24:48;16.00;;;4.80;;
18931;SDS011;9598;50.954;3.112;2022-11-20T17:29:52;12.50;;;4.28;;
18931;SDS011;9598;50.954;3.112;2022-11-20T17:34:56;12.65;;;4.30;;
18931;SDS011;9598;50.954;3.112;2022-11-20T17:39:59;14.32;;;4.82;;
18931;SDS011;9598;50.954;3.112;2022-11-20T17:45:03;10.50;;;4.45;;
18931;SDS011;9598;50.954;3.112;2022-11-20T17:50:06;13.15;;;4.13;;
18931;SDS011;9598;50.954;3.112;2022-11-20T17:55:08;12.07;;;4.47;;
18931;SDS011;9598;50.954;3.112;2022-11-20T18:00:13;16.35;;;4.28;;
18931;SDS011;9598;50.954;3.112;2022-11-20T18:05:16;10.93;;;3.75;;
18931;SDS011;9598;50.954;3.112;2022-11-20T18:10:18;10.63;;;3.35;;
18931;SDS011;9598;50.954;3.112;2022-11-20T18:15:22;10.15;;;3.72;;
18931;SDS011;9598;50.954;3.112;2022-11-20T18:20:24;11.40;;;4.55;;
18931;SDS011;9598;50.954;3.112;2022-11-20T18:25:26;10.73;;;4.20;;
18931;SDS011;9598;50.954;3.112;2022-11-20T18:30:29;13.57;;;4.63;;
18931;SDS011;9598;50.954;3.112;2022-11-20T18:35:31;17.23;;;5.35;;
18931;SDS011;9598;50.954;3.112;2022-11-20T18:40:33;12.05;;;4.53;;
18931;SDS011;9598;50.954;3.112;2022-11-20T18:45:37;14.50;;;6.07;;
18931;SDS011;9598;50.954;3.112;2022-11-20T18:50:39;11.25;;;4.88;;
18931;SDS011;9598;50.954;3.112;2022-11-20T18:55:41;17.10;;;6.10;;
18931;SDS011;9598;50.954;3.112;2022-11-20T19:00:44;13.18;;;6.18;;
18931;SDS011;9598;50.954;3.112;2022-11-20T19:05:46;12.25;;;6.30;;
18931;SDS011;9598;50.954;3.112;2022-11-20T19:10:49;13.77;;;5.88;;
18931;SDS011;9598;50.954;3.112;2022-11-20T19:15:52;15.57;;;5.43;;
18931;SDS011;9598;50.954;3.112;2022-11-20T19:20:54;12.95;;;5.30;;
18931;SDS011;9598;50.954;3.112;2022-11-20T19:25:57;11.95;;;5.60;;
18931;SDS011;9598;50.954;3.112;2022-11-20T19:31:02;13.48;;;5.78;;
18931;SDS011;9598;50.954;3.112;2022-11-20T19:36:08;11.88;;;6.43;;
18931;SDS011;9598;50.954;3.112;2022-11-20T19:41:10;15.18;;;6.50;;
18931;SDS011;9598;50.954;3.112;2022-11-20T19:46:14;13.50;;;6.45;;
18931;SDS011;9598;50.954;3.112;2022-11-20T19:51:18;11.43;;;6.07;;
18931;SDS011;9598;50.954;3.112;2022-11-20T19:56:21;12.57;;;5.75;;
18931;SDS011;9598;50.954;3.112;2022-11-20T20:01:25;11.60;;;5.13;;
18931;SDS011;9598;50.954;3.112;2022-11-20T20:06:29;12.15;;;4.28;;
18931;SDS011;9598;50.954;3.112;2022-11-20T20:11:32;8.85;;;3.60;;
18931;SDS011;9598;50.954;3.112;2022-11-20T20:16:36;13.73;;;4.25;;
18931;SDS011;9598;50.954;3.112;2022-11-20T20:21:38;5.47;;;3.00;;
18931;SDS011;9598;50.954;3.112;2022-11-20T20:26:41;9.32;;;3.00;;
18931;SDS011;9598;50.954;3.112;2022-11-20T20:31:44;7.35;;;3.22;;
18931;SDS011;9598;50.954;3.112;2022-11-20T20:36:47;7.32;;;3.03;;
18931;SDS011;9598;50.954;3.112;2022-11-20T20:41:49;8.32;;;3.90;;
18931;SDS011;9598;50.954;3.112;2022-11-20T20:46:52;5.07;;;3.00;;
18931;SDS011;9598;50.954;3.112;2022-11-20T20:51:54;6.03;;;2.58;;
18931;SDS011;9598;50.954;3.112;2022-11-20T20:56:56;4.22;;;2.10;;
18931;SDS011;9598;50.954;3.112;2022-11-20T21:02:00;4.45;;;2.00;;
18931;SDS011;9598;50.954;3.112;2022-11-20T21:07:02;3.05;;;1.77;;
18931;SDS011;9598;50.954;3.112;2022-11-20T21:12:04;4.93;;;2.08;;
18931;SDS011;9598;50.954;3.112;2022-11-20T21:17:08;2.83;;;2.05;;
18931;SDS011;9598;50.954;3.112;2022-11-20T21:22:10;6.85;;;2.00;;
18931;SDS011;9598;50.954;3.112;2022-11-20T21:27:12;3.17;;;1.65;;
18931;SDS011;9598;50.954;3.112;2022-11-20T21:32:16;6.35;;;2.00;;
18931;SDS011;9598;50.954;3.112;2022-11-20T21:37:18;6.60;;;2.38;;
18931;SDS011;9598;50.954;3.112;2022-11-20T21:42:20;4.45;;;2.67;;
18931;SDS011;9598;50.954;3.112;2022-11-20T21:47:23;6.93;;;2.92;;
18931;SDS011;9598;50.954;3.112;2022-11-20T21:52:25;6.05;;;2.70;;
18931;SDS011;9598;50.954;3.112;2022-11-20T21:57:28;5.78;;;2.72;;
18931;SDS011;9598;50.954;3.112;2022-11-20T22:02:34;3.95;;;2.60;;
18931;SDS011;9598;50.954;3.112;2022-11-20T22:07:41;9.18;;;2.67;;
18931;SDS011;9598;50.954;3.112;2022-11-20T22:12:43;9.45;;;3.17;;
18931;SDS011;9598;50.954;3.112;2022-11-20T22:17:47;4.25;;;2.20;;
18931;SDS011;9598;50.954;3.112;2022-11-20T22:23:06;7.03;;;3.08;;
18931;SDS011;9598;50.954;3.112;2022-11-20T22:28:08;6.65;;;2.95;;
18931;SDS011;9598;50.954;3.112;2022-11-20T22:33:12;10.55;;;3.30;;
18931;SDS011;9598;50.954;3.112;2022-11-20T22:38:14;9.85;;;3.58;;
18931;SDS011;9598;50.954;3.112;2022-11-20T22:43:16;8.45;;;3.03;;
18931;SDS011;9598;50.954;3.112;2022-11-20T22:48:19;5.10;;;2.70;;
18931;SDS011;9598;50.954;3.112;2022-11-20T22:53:22;3.80;;;2.75;;
18931;SDS011;9598;50.954;3.112;2022-11-20T22:58:26;6.40;;;2.80;;
18931;SDS011;9598;50.954;3.112;2022-11-20T23:03:30;8.75;;;2.80;;
18931;SDS011;9598;50.954;3.112;2022-11-20T23:08:32;5.50;;;2.33;;
18931;SDS011;9598;50.954;3.112;2022-11-20T23:13:35;4.28;;;2.10;;
18931;SDS011;9598;50.954;3.112;2022-11-20T23:18:39;7.22;;;2.13;;
18931;SDS011;9598;50.954;3.112;2022-11-20T23:23:41;3.75;;;1.80;;
18931;SDS011;9598;50.954;3.112;2022-11-20T23:28:45;2.60;;;1.50;;
18931;SDS011;9598;50.954;3.112;2022-11-20T23:33:48;2.47;;;1.30;;
18931;SDS011;9598;50.954;3.112;2022-11-20T23:38:51;5.07;;;1.77;;
18931;SDS011;9598;50.954;3.112;2022-11-20T23:43:53;5.63;;;2.10;;
18931;SDS011;9598;50.954;3.112;2022-11-20T23:48:57;4.50;;;1.65;;
18931;SDS011;9598;50.954;3.112;2022-11-20T23:53:59;2.53;;;1.50;;
18931;SDS011;9598;50.954;3.112;2022-11-20T23:59:04;3.83;;;1.52;;
